Time;durP1;ratioP1;P1;durP2;ratioP2;P2;SDS_P1;SDS_P2;PMS_P1;PMS_P2;Temp;Humidity;BMP_temperature;BMP_pressure;BME280_temperature;BME280_humidity;BME280_pressure;Samples;Min_cycle;Max_cycle;Signal;HPM_P1;HPM_P2
2022/08/03 00:01:35;;;;;;;2.87;1.60;;;;;;;21.34;63.98;100437.66;5570952;32;34618;-65
2022/08/03 00:04:38;;;;;;;1.90;1.62;;;;;;;21.10;64.13;100439.53;5570814;32;33827;-65
2022/08/03 00:07:41;;;;;;;2.95;1.60;;;;;;;20.95;64.65;100428.38;5570815;32;34708;-65
2022/08/03 00:10:44;;;;;;;2.42;1.42;;;;;;;20.87;65.54;100426.03;5570819;32;34603;-65
2022/08/03 00:13:46;;;;;;;3.00;1.73;;;;;;;20.74;66.20;100432.47;5570763;32;33861;-65
2022/08/03 00:16:49;;;;;;;2.55;1.70;;;;;;;20.65;66.54;100431.19;5570734;32;33878;-65
2022/08/03 00:19:52;;;;;;;3.17;1.52;;;;;;;20.60;67.02;100433.75;5570677;32;34670;-65
2022/08/03 00:22:54;;;;;;;2.10;1.37;;;;;;;20.62;67.90;100437.03;5570678;32;35161;-65
2022/08/03 00:25:57;;;;;;;2.20;1.90;;;;;;;20.61;67.52;100443.47;5570735;32;33936;-65
2022/08/03 00:29:00;;;;;;;4.78;1.70;;;;;;;20.65;66.92;100448.19;5570604;32;33875;-64
2022/08/03 00:32:03;;;;;;;2.58;1.77;;;;;;;20.59;67.02;100450.97;5570788;32;34591;-65
2022/08/03 00:35:06;;;;;;;2.15;1.62;;;;;;;20.55;67.20;100449.78;5570704;32;33996;-65
2022/08/03 00:38:14;;;;;;;3.42;1.50;;;;;;;20.62;67.46;100450.53;5570505;32;33976;-65
2022/08/03 00:41:17;;;;;;;3.47;1.60;;;;;;;20.69;67.67;100454.75;5570544;32;33938;-65
2022/08/03 00:44:19;;;;;;;5.57;1.98;;;;;;;20.60;68.25;100448.03;5569899;32;33318;-65
2022/08/03 00:47:22;;;;;;;2.42;1.90;;;;;;;20.54;68.11;100458.91;5570569;32;34494;-65
2022/08/03 00:50:27;;;;;;;2.20;1.77;;;;;;;20.62;68.04;100448.62;5570423;32;35189;-65
2022/08/03 00:53:31;;;;;;;2.90;1.90;;;;;;;20.58;68.36;100455.53;5570226;32;33884;-65
2022/08/03 00:56:34;;;;;;;4.95;1.98;;;;;;;20.54;69.26;100451.66;5570213;32;34513;-64
2022/08/03 00:59:38;;;;;;;3.28;2.17;;;;;;;20.49;69.76;100456.91;5569860;32;34012;-65
2022/08/03 01:02:41;;;;;;;4.90;2.00;;;;;;;20.46;69.61;100454.69;5570249;32;34633;-64
2022/08/03 01:06:16;;;;;;;2.92;1.95;;;;;;;20.31;70.23;100463.19;5570245;32;33981;-65
2022/08/03 01:09:25;;;;;;;2.25;1.87;;;;;;;20.23;70.64;100468.88;5570706;32;33758;-65
2022/08/03 01:12:45;;;;;;;2.80;1.80;;;;;;;20.11;71.46;100457.22;5570257;32;33814;-65
2022/08/03 01:15:47;;;;;;;2.62;2.08;;;;;;;20.01;72.67;100465.03;5570328;32;34520;-65
2022/08/03 01:19:07;;;;;;;3.62;1.92;;;;;;;19.94;73.34;100465.09;5569702;32;32594;-65
2022/08/03 01:22:22;;;;;;;2.50;1.95;;;;;;;19.87;74.49;100469.78;5569721;32;32349;-65
2022/08/03 01:25:47;;;;;;;2.53;2.17;;;;;;;19.82;73.97;100469.62;5569586;32;34027;-65
2022/08/03 01:29:36;;;;;;;2.05;1.85;;;;;;;19.78;74.17;100470.31;5570225;31;34449;-65
2022/08/03 01:32:57;;;;;;;3.55;1.95;;;;;;;19.75;74.51;100476.94;5570122;32;34019;-65
2022/08/03 01:36:12;;;;;;;3.30;2.17;;;;;;;19.70;74.90;100473.31;5569310;32;33888;-65
2022/08/03 01:39:18;;;;;;;3.70;2.05;;;;;;;19.65;75.63;100476.69;5569248;32;33840;-65
2022/08/03 01:42:22;;;;;;;4.03;2.30;;;;;;;19.62;75.51;100484.34;5569357;32;34594;-65
2022/08/03 01:45:27;;;;;;;2.50;1.90;;;;;;;19.55;75.87;100481.75;5570175;32;35170;-65
2022/08/03 01:48:38;;;;;;;3.40;2.10;;;;;;;19.51;76.05;100481.34;5569909;32;33813;-65
2022/08/03 01:51:43;;;;;;;2.45;2.00;;;;;;;19.46;76.30;100478.50;5569928;32;33945;-65
2022/08/03 01:55:07;;;;;;;2.87;1.85;;;;;;;19.40;76.65;100471.31;5570151;32;35103;-65
2022/08/03 01:58:13;;;;;;;3.60;2.10;;;;;;;19.38;77.00;100472.56;5569188;32;33917;-65
2022/08/03 02:01:20;;;;;;;2.20;2.00;;;;;;;19.36;77.35;100469.31;5570111;32;33905;-65
2022/08/03 02:04:25;;;;;;;4.50;2.12;;;;;;;19.53;76.59;100468.50;5569009;32;33998;-65
2022/08/03 02:07:29;;;;;;;3.17;1.87;;;;;;;19.56;75.84;100475.31;5568710;32;34150;-65
2022/08/03 02:10:35;;;;;;;3.08;2.30;;;;;;;19.44;76.77;100467.16;5569747;32;33844;-65
2022/08/03 02:13:39;;;;;;;2.62;1.85;;;;;;;19.43;76.70;100461.97;5569648;32;34668;-65
2022/08/03 02:16:44;;;;;;;2.67;2.05;;;;;;;19.39;76.73;100466.97;5569625;32;34147;-65
2022/08/03 02:19:49;;;;;;;2.87;2.17;;;;;;;19.33;76.83;100467.87;5569659;32;33358;-65
2022/08/03 02:22:52;;;;;;;6.80;2.62;;;;;;;19.26;77.43;100469.81;5569573;32;34609;-65
2022/08/03 02:25:59;;;;;;;3.72;2.20;;;;;;;19.25;78.34;100468.16;5569918;32;33802;-65
2022/08/03 02:29:12;;;;;;;5.75;2.35;;;;;;;19.21;78.31;100468.84;5569165;32;34653;-65
2022/08/03 02:32:19;;;;;;;2.95;2.22;;;;;;;19.16;78.48;100469.50;5569456;32;34526;-65
2022/08/03 02:35:25;;;;;;;2.70;2.10;;;;;;;19.12;78.62;100462.91;5569433;32;34111;-65
2022/08/03 02:38:33;;;;;;;2.70;2.28;;;;;;;19.06;78.99;100461.09;5569259;32;34221;-65
2022/08/03 02:41:43;;;;;;;2.75;2.05;;;;;;;19.05;79.61;100471.03;5569250;32;33917;-64
2022/08/03 02:44:49;;;;;;;2.30;2.10;;;;;;;19.05;80.80;100468.34;5569530;32;34091;-65
2022/08/03 02:47:57;;;;;;;2.65;2.37;;;;;;;19.19;80.48;100476.28;5569091;32;34254;-65
2022/08/03 02:51:02;;;;;;;4.62;2.20;;;;;;;19.30;80.63;100476.38;5569048;32;34007;-65
2022/08/03 02:54:08;;;;;;;4.28;2.50;;;;;;;19.31;81.72;100479.91;5569072;32;34598;-64
2022/08/03 02:57:13;;;;;;;4.72;2.45;;;;;;;19.32;81.78;100473.47;5568726;32;34593;-64
2022/08/03 03:00:16;;;;;;;3.75;2.22;;;;;;;19.32;82.41;100479.66;5568062;32;33960;-65
2022/08/03 03:03:31;;;;;;;2.95;2.42;;;;;;;19.29;82.47;100477.44;5567867;32;34877;-65
2022/08/03 03:06:47;;;;;;;3.37;2.55;;;;;;;19.27;83.36;100484.06;5568038;32;32396;-65
2022/08/03 03:09:51;;;;;;;2.97;2.58;;;;;;;19.21;84.30;100479.59;5568802;32;34597;-65
2022/08/03 03:12:57;;;;;;;3.55;2.75;;;;;;;19.22;85.59;100481.25;5571076;32;34641;-65
2022/08/03 03:16:02;;;;;;;3.92;2.40;;;;;;;19.09;86.01;100474.09;5571340;32;33954;-65
2022/08/03 03:19:07;;;;;;;3.40;2.83;;;;;;;18.93;86.75;100475.47;5571559;32;33809;-65
2022/08/03 03:22:11;;;;;;;2.90;2.60;;;;;;;18.82;87.83;100483.44;5571412;32;34626;-65
2022/08/03 03:25:15;;;;;;;4.03;2.90;;;;;;;18.78;88.35;100480.38;5571527;32;33893;-65
2022/08/03 03:28:18;;;;;;;4.62;3.00;;;;;;;18.73;88.55;100479.38;5570274;32;34569;-65
2022/08/03 03:31:21;;;;;;;3.72;3.00;;;;;;;18.63;88.77;100480.69;5571262;32;34743;-65
2022/08/03 03:34:24;;;;;;;2.80;2.60;;;;;;;18.60;88.30;100478.41;5571121;32;34520;-65
2022/08/03 03:37:27;;;;;;;3.55;2.75;;;;;;;18.74;87.46;100475.62;5571198;32;34414;-65
2022/08/03 03:40:30;;;;;;;5.40;3.00;;;;;;;18.91;88.42;100482.13;5571117;32;34537;-65
2022/08/03 03:43:33;;;;;;;4.85;3.12;;;;;;;18.85;88.21;100483.81;5571045;32;34243;-65
2022/08/03 03:46:37;;;;;;;5.60;2.58;;;;;;;18.84;89.54;100484.84;5571021;32;34283;-65
2022/08/03 03:49:41;;;;;;;3.62;2.83;;;;;;;18.91;88.97;100488.31;5571003;32;33938;-66
2022/08/03 03:52:44;;;;;;;4.97;2.90;;;;;;;19.01;87.97;100485.16;5570265;32;35179;-66
2022/08/03 03:55:47;;;;;;;6.65;3.03;;;;;;;19.02;87.45;100490.31;5570861;32;33933;-67
2022/08/03 03:59:03;;;;;;;3.72;3.00;;;;;;;19.10;86.79;100489.19;5570913;32;34505;-67
2022/08/03 04:02:07;;;;;;;9.35;4.05;;;;;;;19.10;86.49;100486.50;5570924;32;33934;-67
2022/08/03 04:11:59;;;;;;;4.05;3.42;;;;;;;19.27;86.60;100494.81;5569842;32;33882;-66
2022/08/03 04:15:03;;;;;;;5.15;3.22;;;;;;;19.26;85.62;100502.09;5570747;32;34213;-66
2022/08/03 04:18:10;;;;;;;3.97;3.10;;;;;;;19.31;85.77;100504.94;5570738;32;33814;-66
2022/08/03 04:21:16;;;;;;;3.60;3.22;;;;;;;19.36;85.54;100506.97;5570433;32;33869;-67
2022/08/03 04:24:20;;;;;;;4.80;3.20;;;;;;;19.44;85.98;100512.09;5570545;32;33849;-66
2022/08/03 04:27:35;;;;;;;5.72;3.50;;;;;;;19.57;84.25;100517.31;5570442;31;34009;-67
2022/08/03 04:30:46;;;;;;;6.90;3.15;;;;;;;19.60;84.34;100521.44;5569873;32;33992;-67
2022/08/03 04:33:51;;;;;;;5.03;3.45;;;;;;;19.59;85.70;100514.41;5570395;32;34643;-67
2022/08/03 04:36:58;;;;;;;4.82;3.67;;;;;;;19.70;84.88;100513.69;5570458;32;33827;-67
2022/08/03 04:40:04;;;;;;;5.00;3.62;;;;;;;19.82;86.69;100520.78;5570535;32;34012;-66
2022/08/03 04:43:10;;;;;;;5.32;3.50;;;;;;;19.83;86.78;100517.03;5570475;32;34562;-67
2022/08/03 04:46:14;;;;;;;6.25;3.70;;;;;;;19.93;87.95;100517.34;5570532;32;33929;-67
2022/08/03 04:49:18;;;;;;;5.80;3.78;;;;;;;20.04;87.22;100520.31;5570341;32;33962;-67
2022/08/03 04:52:21;;;;;;;5.07;3.97;;;;;;;20.12;87.83;100520.84;5569975;32;34514;-66
2022/08/03 04:55:26;;;;;;;5.32;3.90;;;;;;;20.14;88.50;100526.78;5570293;32;34019;-66
2022/08/03 04:58:29;;;;;;;5.78;3.85;;;;;;;20.27;87.91;100536.59;5570055;32;33998;-67
2022/08/03 05:01:31;;;;;;;12.95;4.30;;;;;;;20.33;88.12;100543.81;5570189;32;34595;-66
2022/08/03 05:04:34;;;;;;;5.50;4.00;;;;;;;20.32;87.71;100545.69;5569852;32;33906;-66
2022/08/03 05:07:37;;;;;;;7.37;4.10;;;;;;;20.39;86.84;100549.09;5570154;32;34546;-66
2022/08/03 05:10:40;;;;;;;4.75;3.80;;;;;;;20.42;86.41;100547.84;5570068;32;33791;-66
2022/08/03 05:13:44;;;;;;;4.97;3.90;;;;;;;20.50;85.00;100552.91;5569209;32;32530;-65
2022/08/03 05:16:46;;;;;;;5.90;4.07;;;;;;;20.51;84.52;100559.13;5569998;32;34498;-66
2022/08/03 05:19:49;;;;;;;6.78;4.10;;;;;;;20.64;83.93;100554.34;5569369;32;32942;-66
2022/08/03 05:22:52;;;;;;;7.00;4.32;;;;;;;20.88;83.00;100557.12;5569220;32;34127;-66
2022/08/03 05:25:55;;;;;;;6.25;4.10;;;;;;;20.94;81.85;100558.91;5569227;32;33971;-66
2022/08/03 05:28:58;;;;;;;5.57;4.05;;;;;;;21.02;82.46;100563.94;5556176;32;35130;-66
2022/08/03 05:32:01;;;;;;;10.48;3.92;;;;;;;21.18;82.30;100566.00;5569994;32;34038;-66
2022/08/03 05:35:09;;;;;;;8.18;3.55;;;;;;;21.30;81.53;100569.53;5568817;32;34718;-66
2022/08/03 05:38:32;;;;;;;5.03;3.92;;;;;;;21.50;81.18;100570.03;5570180;32;34476;-66
2022/08/03 05:41:36;;;;;;;7.37;3.83;;;;;;;21.77;79.92;100569.56;5569635;32;33813;-65
2022/08/03 05:44:40;;;;;;;3.90;3.50;;;;;;;21.75;79.37;100571.66;5569676;32;33947;-66
2022/08/03 05:47:44;;;;;;;6.75;3.70;;;;;;;21.88;79.45;100574.91;5569702;32;34483;-66
2022/08/03 05:50:47;;;;;;;5.30;3.80;;;;;;;21.82;80.55;100570.50;5569312;32;34591;-66
2022/08/03 05:53:49;;;;;;;6.43;3.70;;;;;;;21.81;79.15;100573.41;5569418;32;33827;-65
2022/08/03 05:56:52;;;;;;;4.93;3.58;;;;;;;22.07;78.18;100581.84;5569543;32;34568;-66
2022/08/03 05:59:54;;;;;;;8.70;3.42;;;;;;;22.23;77.29;100584.88;5569367;32;33982;-65
2022/08/03 06:03:01;;;;;;;5.40;4.25;;;;;;;22.21;77.06;100581.59;5569334;32;33884;-65
2022/08/03 06:06:04;;;;;;;5.10;3.42;;;;;;;22.45;77.19;100583.19;5569853;32;33919;-66
2022/08/03 06:09:06;;;;;;;7.55;3.67;;;;;;;22.64;74.92;100584.62;5568689;32;33817;-66
2022/08/03 06:12:09;;;;;;;4.53;3.53;;;;;;;22.84;73.63;100592.34;5569384;32;34392;-66
2022/08/03 06:15:17;;;;;;;4.30;3.10;;;;;;;22.92;73.18;100587.34;5569234;32;35148;-65
2022/08/03 06:18:20;;;;;;;5.40;3.55;;;;;;;22.99;72.77;100589.09;5569257;32;34050;-66
2022/08/03 06:21:22;;;;;;;4.40;3.30;;;;;;;23.10;71.77;100599.00;5569280;32;34600;-66
2022/08/03 06:24:28;;;;;;;6.55;3.70;;;;;;;23.11;71.04;100592.53;5569137;32;34151;-64
2022/08/03 06:27:31;;;;;;;5.03;3.50;;;;;;;23.25;71.02;100593.84;5568826;32;33718;-66
2022/08/03 06:30:40;;;;;;;6.72;3.45;;;;;;;23.36;71.11;100593.78;5568806;32;34102;-66
2022/08/03 06:33:42;;;;;;;4.62;3.60;;;;;;;23.60;69.80;100599.84;5569194;32;34288;-65
2022/08/03 06:37:05;;;;;;;4.57;3.55;;;;;;;23.62;68.94;100602.34;5568949;32;34098;-65
2022/08/03 06:40:10;;;;;;;5.47;3.35;;;;;;;23.77;69.02;100597.94;5569353;32;33973;-66
2022/08/03 06:43:15;;;;;;;5.10;3.33;;;;;;;24.00;67.20;100594.22;5569150;32;34480;-66
2022/08/03 06:46:19;;;;;;;5.65;3.58;;;;;;;24.15;67.38;100604.44;5570610;32;33766;-65
2022/08/03 06:49:22;;;;;;;7.93;4.10;;;;;;;24.15;66.05;100601.72;5571005;32;34609;-65
2022/08/03 06:52:24;;;;;;;4.82;3.75;;;;;;;24.42;66.05;100599.91;5571219;32;34132;-65
2022/08/03 06:55:40;;;;;;;7.40;4.87;;;;;;;24.82;63.54;100606.87;5571021;32;34594;-65
2022/08/03 06:58:45;;;;;;;6.45;3.95;;;;;;;25.05;62.00;100595.72;5571249;32;35177;-65
2022/08/03 07:01:48;;;;;;;4.85;3.90;;;;;;;25.20;59.43;100601.28;5571298;32;33851;-66
2022/08/03 07:04:51;;;;;;;5.68;3.60;;;;;;;25.46;58.38;100608.53;5570422;32;33420;-65
2022/08/03 07:07:56;;;;;;;6.75;3.90;;;;;;;25.41;59.54;100605.81;5570391;32;32491;-66
2022/08/03 07:10:58;;;;;;;6.45;4.12;;;;;;;25.69;57.68;100599.25;5570367;32;32281;-65
2022/08/03 07:14:01;;;;;;;6.90;4.43;;;;;;;25.57;57.82;100600.50;5570484;32;33921;-65
2022/08/03 07:17:04;;;;;;;6.43;4.25;;;;;;;25.44;58.36;100597.13;5570781;32;33994;-66
2022/08/03 07:20:16;;;;;;;7.72;3.80;;;;;;;25.76;56.67;100601.72;5571056;32;34651;-64
2022/08/03 07:23:18;;;;;;;7.30;4.43;;;;;;;26.08;55.76;100607.06;5570034;32;32529;-65
2022/08/03 07:26:21;;;;;;;4.72;3.62;;;;;;;27.01;53.86;100611.53;5570734;32;33875;-65
2022/08/03 07:29:24;;;;;;;5.07;3.97;;;;;;;27.34;52.84;100610.16;5543793;32;32626;-65
2022/08/03 07:32:30;;;;;;;4.65;3.62;;;;;;;27.95;50.06;100610.91;5570855;32;33925;-65
2022/08/03 07:35:32;;;;;;;6.28;3.60;;;;;;;28.40;49.56;100611.88;5570871;32;33888;-65
2022/08/03 07:38:35;;;;;;;5.87;3.62;;;;;;;28.01;50.08;100607.09;5570555;32;35126;-66
2022/08/03 07:41:38;;;;;;;4.57;3.10;;;;;;;29.28;46.61;100609.16;5571150;32;33794;-65
2022/08/03 07:44:43;;;;;;;5.87;3.45;;;;;;;30.36;44.20;100602.31;5570107;32;33274;-65
2022/08/03 07:47:46;;;;;;;7.85;3.37;;;;;;;30.57;43.08;100599.06;5570930;32;33955;-66
2022/08/03 07:50:55;;;;;;;4.12;3.20;;;;;;;31.36;41.54;100602.00;5570595;32;34022;-66
2022/08/03 07:53:59;;;;;;;5.00;2.92;;;;;;;31.47;40.90;100606.16;5570770;32;33858;-66
2022/08/03 07:57:02;;;;;;;6.07;3.50;;;;;;;31.26;41.42;100604.91;5570144;32;34540;-66
2022/08/03 08:00:11;;;;;;;5.12;3.15;;;;;;;30.63;43.74;100599.81;5570018;32;33855;-67
2022/08/03 08:03:14;;;;;;;5.15;2.90;;;;;;;31.44;41.34;100593.06;5555728;32;32284;-65
2022/08/03 08:06:17;;;;;;;3.92;2.80;;;;;;;31.29;41.38;100591.41;5566400;32;34939;-65
2022/08/03 08:09:20;;;;;;;9.40;2.80;;;;;;;32.48;38.82;100598.75;5568861;32;34629;-66
2022/08/03 08:12:22;;;;;;;6.18;3.10;;;;;;;33.05;37.74;100599.94;5567688;32;34689;-67
2022/08/03 08:15:25;;;;;;;7.45;3.10;;;;;;;33.63;35.55;100599.84;5565017;32;33916;-67
2022/08/03 08:18:30;;;;;;;3.90;3.12;;;;;;;33.25;36.64;100600.59;5568434;32;34002;-66
2022/08/03 08:21:33;;;;;;;4.97;3.10;;;;;;;32.95;36.88;100593.84;5568536;32;33875;-67
2022/08/03 08:25:03;;;;;;;5.75;3.22;;;;;;;34.29;34.29;100592.53;5568784;32;32324;-65
2022/08/03 08:28:06;;;;;;;4.32;3.10;;;;;;;31.14;40.64;100597.13;5569347;31;34626;-66
2022/08/03 08:31:29;;;;;;;5.87;3.10;;;;;;;32.06;38.84;100591.62;5569250;32;32724;-66
2022/08/03 08:34:31;;;;;;;3.97;3.30;;;;;;;32.70;37.05;100592.50;5568914;32;33859;-66
2022/08/03 08:37:34;;;;;;;4.85;3.28;;;;;;;32.57;36.57;100590.59;5566558;32;34683;-66
2022/08/03 08:40:39;;;;;;;8.07;3.40;;;;;;;34.25;33.79;100588.78;5566353;32;34010;-66
2022/08/03 08:43:42;;;;;;;3.58;2.87;;;;;;;35.37;32.28;100599.06;5568354;32;33458;-67
2022/08/03 08:46:46;;;;;;;4.55;3.35;;;;;;;35.55;31.56;100587.66;5556545;32;33539;-67
2022/08/03 08:49:52;;;;;;;4.25;3.28;;;;;;;36.47;29.66;100591.47;5567545;32;34406;-67
2022/08/03 08:53:12;;;;;;;3.78;2.58;;;;;;;36.35;30.17;100591.41;5569208;32;32931;-65
2022/08/03 08:56:24;;;;;;;6.68;2.95;;;;;;;34.64;32.27;100589.81;5569516;32;34636;-66
2022/08/03 08:59:31;;;;;;;5.07;3.25;;;;;;;33.51;34.80;100596.84;5568637;32;33929;-68
2022/08/03 09:02:51;;;;;;;5.87;2.90;;;;;;;35.64;30.37;100587.62;5568762;32;33342;-67
2022/08/03 09:05:54;;;;;;;4.95;3.00;;;;;;;34.35;32.03;100584.91;5554845;32;33171;-67
2022/08/03 09:08:58;;;;;;;4.15;2.70;;;;;;;34.48;32.79;100582.03;5567681;32;34169;-68
2022/08/03 09:12:01;;;;;;;3.53;2.75;;;;;;;36.71;28.69;100582.53;5570052;32;33911;-68
2022/08/03 09:15:27;;;;;;;8.73;2.97;;;;;;;36.50;28.75;100574.19;5569613;32;35118;-68
2022/08/03 09:18:30;;;;;;;3.40;2.70;;;;;;;36.80;29.36;100571.41;5569765;32;34267;-68
2022/08/03 09:21:34;;;;;;;6.57;2.90;;;;;;;37.89;27.78;100576.47;5566645;32;33276;-68
2022/08/03 09:24:53;;;;;;;3.87;2.80;;;;;;;38.65;26.41;100573.75;5568868;32;33925;-67
2022/08/03 09:28:17;;;;;;;4.28;2.95;;;;;;;36.92;28.71;100577.00;5568648;32;32717;-68
2022/08/03 09:31:45;;;;;;;4.82;2.95;;;;;;;37.37;28.20;100568.75;5569210;32;33366;-68
2022/08/03 09:34:50;;;;;;;3.35;2.60;;;;;;;37.77;27.06;100572.53;5569055;32;33589;-66
2022/08/03 09:38:24;;;;;;;9.52;2.62;;;;;;;36.01;29.26;100569.47;5568744;32;33157;-67
2022/08/03 09:41:27;;;;;;;3.90;2.92;;;;;;;34.52;32.03;100560.13;5569877;32;34047;-67
2022/08/03 09:44:42;;;;;;;4.28;2.78;;;;;;;36.54;28.89;100566.88;5569387;32;34351;-67
2022/08/03 09:47:44;;;;;;;4.15;2.60;;;;;;;37.65;27.50;100555.91;5568465;32;33869;-67
2022/08/03 09:50:52;;;;;;;11.07;2.95;;;;;;;39.49;25.08;100555.13;5569133;32;34529;-67
2022/08/03 09:54:02;;;;;;;7.90;2.87;;;;;;;39.22;25.54;100553.16;5569261;32;35153;-68
2022/08/03 09:57:20;;;;;;;11.68;2.97;;;;;;;38.16;26.54;100545.28;5568808;32;33947;-65
2022/08/03 10:00:23;;;;;;;2.78;2.10;;;;;;;37.49;27.30;100554.12;5569978;32;33825;-66
2022/08/03 10:03:29;;;;;;;3.62;2.70;;;;;;;37.24;25.26;100543.00;5568777;32;33029;-66
2022/08/03 10:06:32;;;;;;;5.22;2.22;;;;;;;35.06;30.18;100536.63;5568799;32;34722;-66
2022/08/03 10:09:36;;;;;;;2.78;2.30;;;;;;;35.12;28.44;100540.84;5569531;32;33962;-69
2022/08/03 10:12:40;;;;;;;5.57;2.40;;;;;;;36.24;27.74;100531.34;5569010;32;34076;-67
2022/08/03 10:15:44;;;;;;;4.40;2.47;;;;;;;38.88;24.54;100535.19;5568677;32;32323;-67
2022/08/03 10:19:08;;;;;;;5.12;2.22;;;;;;;39.83;23.49;100532.19;5569362;32;33876;-67
2022/08/03 10:22:26;;;;;;;5.03;2.35;;;;;;;40.86;22.27;100531.69;5569396;32;33877;-67
2022/08/03 10:25:30;;;;;;;4.25;2.33;;;;;;;40.40;22.62;100525.16;5568766;32;34029;-68
2022/08/03 10:28:39;;;;;;;5.00;2.67;;;;;;;41.04;21.99;100523.72;5529112;32;869377;-69
2022/08/03 10:31:48;;;;;;;3.12;2.20;;;;;;;39.78;23.05;100526.09;5545529;32;33866;-68
2022/08/03 10:35:06;;;;;;;3.47;1.98;;;;;;;41.33;21.62;100519.47;5548810;32;33467;-68
2022/08/03 10:38:31;;;;;;;2.45;2.00;;;;;;;42.23;20.57;100507.34;5549504;32;33952;-69
2022/08/03 10:41:41;;;;;;;2.67;2.03;;;;;;;41.40;21.48;100514.00;5549391;32;33847;-68
2022/08/03 10:44:44;;;;;;;3.85;2.20;;;;;;;42.61;19.91;100502.66;5548755;32;33913;-68
2022/08/03 10:47:48;;;;;;;3.30;2.10;;;;;;;41.59;20.78;100505.59;5548860;32;33708;-68
2022/08/03 10:50:51;;;;;;;2.85;2.08;;;;;;;43.48;19.63;100499.22;5549524;32;34581;-67
2022/08/03 10:53:54;;;;;;;2.25;1.80;;;;;;;44.80;18.23;100497.97;5549078;32;34545;-68
2022/08/03 11:00:48;;;;;;;6.93;2.20;;;;;;;43.44;19.18;100492.78;5548372;32;33029;-66
2022/08/03 11:03:51;;;;;;;2.58;2.00;;;;;;;42.51;19.49;100490.19;5548721;32;32643;-67
2022/08/03 11:07:16;;;;;;;2.65;2.08;;;;;;;42.94;19.52;100471.19;5549004;32;34625;-67
2022/08/03 11:10:30;;;;;;;2.72;2.08;;;;;;;44.31;17.92;100479.81;5549324;32;34032;-66
2022/08/03 11:13:33;;;;;;;2.53;2.10;;;;;;;43.58;18.77;100469.75;5548373;32;34527;-68
2022/08/03 11:16:40;;;;;;;5.03;2.10;;;;;;;46.35;15.88;100480.28;5548903;32;34681;-67
2022/08/03 11:19:47;;;;;;;2.42;1.92;;;;;;;45.21;17.04;100467.66;5548119;32;32411;-67
2022/08/03 11:23:00;;;;;;;2.08;1.70;;;;;;;44.66;16.43;100467.16;5548721;32;33907;-68
2022/08/03 11:26:17;;;;;;;3.08;1.80;;;;;;;41.98;19.15;100464.41;5548591;32;34518;-68
2022/08/03 11:29:28;;;;;;;3.03;1.95;;;;;;;41.49;19.47;100462.47;5548164;32;32710;-67
2022/08/03 11:32:46;;;;;;;1.55;1.45;;;;;;;41.57;20.06;100460.59;5549391;32;32697;-69
2022/08/03 11:36:00;;;;;;;6.62;1.40;;;;;;;43.31;17.58;100455.19;5538300;32;32583;-68
2022/08/03 11:39:15;;;;;;;3.37;1.52;;;;;;;43.09;18.16;100447.81;5538043;32;33216;-67
2022/08/03 11:42:21;;;;;;;3.35;1.70;;;;;;;42.53;18.39;100448.78;5551359;32;34491;-67
2022/08/03 11:45:24;;;;;;;1.50;1.40;;;;;;;46.21;15.41;100452.28;5551602;32;33799;-68
2022/08/03 11:48:33;;;;;;;2.58;1.50;;;;;;;46.72;15.01;100448.84;5550245;32;32874;-68
2022/08/03 11:51:38;;;;;;;2.58;1.42;;;;;;;45.45;16.42;100438.88;5550562;32;33854;-66
2022/08/03 11:54:42;;;;;;;1.90;1.30;;;;;;;45.24;15.82;100436.84;5550063;32;33282;-68
2022/08/03 11:57:46;;;;;;;2.85;1.50;;;;;;;46.22;14.73;100437.06;5550641;32;33777;-67
2022/08/03 12:01:10;;;;;;;1.52;1.37;;;;;;;45.35;15.60;100442.44;5550752;32;33854;-69
2022/08/03 12:04:15;;;;;;;3.62;1.40;;;;;;;46.94;14.07;100438.28;5550380;32;33655;-68
2022/08/03 12:07:18;;;;;;;2.17;1.37;;;;;;;47.14;13.53;100424.47;5550494;32;33817;-68
2022/08/03 12:10:47;;;;;;;1.62;1.40;;;;;;;47.19;13.73;100427.63;5551618;32;33908;-67
2022/08/03 12:13:50;;;;;;;2.53;1.35;;;;;;;49.11;13.08;100424.00;5551327;32;34600;-68
2022/08/03 12:17:13;;;;;;;1.65;1.40;;;;;;;47.95;13.10;100429.25;5550652;32;32262;-68
2022/08/03 12:20:22;;;;;;;1.85;1.50;;;;;;;48.04;14.20;100425.97;5551182;32;33959;-66
2022/08/03 12:23:37;;;;;;;2.20;1.70;;;;;;;43.94;16.01;100426.09;5550511;32;32694;-68
2022/08/03 12:26:49;;;;;;;1.87;1.50;;;;;;;41.43;17.78;100416.59;5550244;32;33904;-68
2022/08/03 12:30:03;;;;;;;2.05;1.55;;;;;;;39.99;19.76;100414.66;5550938;32;34271;-68
2022/08/03 12:33:16;;;;;;;2.15;1.50;;;;;;;42.42;18.46;100403.22;5551008;32;33891;-67
2022/08/03 12:36:20;;;;;;;1.87;1.50;;;;;;;44.42;16.37;100407.91;5550309;32;32974;-67
2022/08/03 12:39:26;;;;;;;2.22;1.60;;;;;;;46.91;14.48;100400.59;5551403;32;32708;-67
2022/08/03 12:42:34;;;;;;;1.75;1.65;;;;;;;47.88;13.52;100398.44;5550383;32;33951;-68
2022/08/03 12:45:37;;;;;;;2.72;1.37;;;;;;;45.72;15.10;100394.34;5550887;32;34235;-67
2022/08/03 12:49:10;;;;;;;3.53;1.92;;;;;;;39.64;20.62;100387.69;5550073;32;34277;-69
2022/08/03 12:52:12;;;;;;;2.50;1.90;;;;;;;40.41;20.22;100382.19;5549850;32;34176;-67
2022/08/03 12:55:19;;;;;;;2.15;1.65;;;;;;;43.15;17.33;100384.81;5550224;32;32593;-67
2022/08/03 12:58:35;;;;;;;4.43;1.80;;;;;;;44.89;16.36;100378.00;5550158;32;33923;-67
2022/08/03 13:01:38;;;;;;;2.90;1.80;;;;;;;43.55;16.57;100383.94;5550094;32;32529;-67
2022/08/03 13:04:58;;;;;;;2.10;1.60;;;;;;;44.88;15.93;100376.44;5538879;32;33328;-67
2022/08/03 13:08:02;;;;;;;4.10;1.60;;;;;;;46.01;15.11;100373.41;5550223;32;32669;-67
2022/08/03 13:11:17;;;;;;;3.15;1.60;;;;;;;43.87;16.26;100375.72;5550316;32;34498;-67
2022/08/03 13:14:21;;;;;;;3.83;2.33;;;;;;;45.41;15.29;100370.81;5549475;32;33006;-68
2022/08/03 13:17:26;;;;;;;2.65;1.98;;;;;;;48.62;12.90;100362.81;5549571;32;32918;-68
2022/08/03 13:20:29;;;;;;;2.40;1.80;;;;;;;48.55;13.15;100365.78;5550571;32;34740;-69
2022/08/03 13:23:32;;;;;;;2.78;1.58;;;;;;;50.58;10.99;100364.22;5550605;32;34014;-68
2022/08/03 13:26:35;;;;;;;1.95;1.60;;;;;;;51.06;11.22;100357.75;5549657;32;35037;-70
2022/08/03 13:29:38;;;;;;;1.52;1.42;;;;;;;48.18;12.79;100358.25;5549998;32;33975;-69
2022/08/03 13:32:41;;;;;;;1.90;1.80;;;;;;;46.68;13.56;100347.78;5549887;32;33963;-67
2022/08/03 13:35:44;;;;;;;2.00;1.60;;;;;;;48.52;12.97;100356.13;5550150;32;33990;-68
2022/08/03 13:38:46;;;;;;;3.15;2.00;;;;;;;48.52;11.83;100356.13;5549633;32;32234;-68
2022/08/03 13:41:49;;;;;;;2.03;1.80;;;;;;;50.00;11.08;100355.44;5549710;32;33629;-68
2022/08/03 13:44:52;;;;;;;1.60;1.50;;;;;;;47.95;12.76;100348.50;5550496;32;34027;-68
2022/08/03 13:47:55;;;;;;;2.70;1.80;;;;;;;49.24;11.79;100352.94;5549997;32;34299;-68
2022/08/03 13:50:58;;;;;;;3.92;1.77;;;;;;;47.59;12.73;100338.09;5550234;32;34626;-68
2022/08/03 13:54:07;;;;;;;4.50;2.10;;;;;;;47.94;12.55;100340.47;5549420;32;34681;-68
2022/08/03 13:57:10;;;;;;;2.20;1.77;;;;;;;47.96;12.45;100340.84;5549360;32;32375;-67
2022/08/03 14:00:33;;;;;;;2.12;1.55;;;;;;;46.62;13.81;100329.00;5549862;32;34036;-67
2022/08/03 14:03:36;;;;;;;2.47;1.70;;;;;;;44.48;15.02;100330.00;5549511;32;32481;-68
2022/08/03 14:06:38;;;;;;;2.53;1.65;;;;;;;46.44;13.37;100329.09;5549347;32;34491;-68
2022/08/03 14:09:47;;;;;;;1.87;1.70;;;;;;;47.56;12.75;100322.84;5549213;32;33346;-67
2022/08/03 14:12:50;;;;;;;3.75;1.60;;;;;;;49.44;11.12;100326.38;5549759;32;34600;-66
2022/08/03 14:15:54;;;;;;;3.62;1.73;;;;;;;49.48;11.45;100323.50;5548611;32;34412;-68
2022/08/03 14:18:57;;;;;;;2.83;1.65;;;;;;;48.95;11.92;100319.63;5548982;32;33012;-68
2022/08/03 14:22:03;;;;;;;2.25;1.95;;;;;;;47.56;12.65;100317.22;5549869;32;34107;-66
2022/08/03 14:25:08;;;;;;;4.32;1.60;;;;;;;48.14;11.82;100299.22;5548930;32;32815;-67
2022/08/03 14:28:12;;;;;;;2.70;1.80;;;;;;;48.50;11.50;100302.28;5549093;32;34618;-67
2022/08/03 14:31:14;;;;;;;1.98;1.83;;;;;;;46.25;12.92;100293.16;5535906;32;32430;-68
2022/08/03 14:34:37;;;;;;;2.08;1.50;;;;;;;44.16;14.48;100285.94;5538077;32;33842;-66
2022/08/03 14:37:40;;;;;;;2.53;1.77;;;;;;;37.72;19.74;100273.69;5547983;32;35215;-68
2022/08/03 14:40:49;;;;;;;3.17;1.70;;;;;;;36.21;21.92;100278.69;5548569;32;32359;-68